Time;durP1;ratioP1;P1;durP2;ratioP2;P2;SDS_P1;SDS_P2;PMS_P1;PMS_P2;Temp;Humidity;BMP_temperature;BMP_pressure;BME280_temperature;BME280_humidity;BME280_pressure;Samples;Min_cycle;Max_cycle;Signal;HPM_P1;HPM_P2
2021/09/10 00:02:24;;;;;;;4.63;2.30;;;;;;;;;;5015733;28;20437;-72
2021/09/10 00:04:50;;;;;;;4.18;2.40;;;;;;;;;;5016495;28;20040;-69
2021/09/10 00:07:16;;;;;;;4.38;2.25;;;;;;;;;;5016907;28;20037;-75
2021/09/10 00:09:42;;;;;;;5.30;2.53;;;;;;;;;;5016552;28;20014;-72
2021/09/10 00:12:08;;;;;;;3.33;2.22;;;;;;;;;;5015881;28;20046;-69
2021/09/10 00:14:34;;;;;;;7.43;2.33;;;;;;;;;;5014624;28;20030;-69
2021/09/10 00:17:00;;;;;;;4.78;2.30;;;;;;;;;;5013503;28;20052;-69
2021/09/10 00:19:26;;;;;;;4.97;2.30;;;;;;;;;;5015320;28;20405;-68
2021/09/10 00:21:52;;;;;;;3.38;2.25;;;;;;;;;;5015598;28;20022;-68
2021/09/10 00:24:18;;;;;;;2.88;2.03;;;;;;;;;;5016072;28;20372;-70
2021/09/10 00:26:44;;;;;;;9.82;2.92;;;;;;;;;;4996417;28;20022;-68
2021/09/10 00:29:10;;;;;;;7.30;2.50;;;;;;;;;;4996051;28;20370;-70
2021/09/10 00:31:36;;;;;;;9.02;2.28;;;;;;;;;;4995136;28;20061;-68
2021/09/10 00:34:02;;;;;;;6.07;2.35;;;;;;;;;;5005387;28;20135;-67
2021/09/10 00:36:28;;;;;;;12.85;2.42;;;;;;;;;;5015438;28;20037;-67
2021/09/10 00:38:54;;;;;;;5.68;2.92;;;;;;;;;;5015158;28;20034;-67
2021/09/10 00:41:20;;;;;;;5.88;2.42;;;;;;;;;;5014003;28;20393;-68
2021/09/10 00:43:46;;;;;;;3.78;2.70;;;;;;;;;;5015208;28;20099;-68
2021/09/10 00:46:12;;;;;;;4.15;2.65;;;;;;;;;;5015474;28;20125;-68
2021/09/10 00:48:40;;;;;;;5.63;2.85;;;;;;;;;;5015258;28;20022;-67
2021/09/10 00:51:06;;;;;;;5.07;2.80;;;;;;;;;;5014080;28;20037;-67
2021/09/10 00:53:32;;;;;;;5.28;2.60;;;;;;;;;;5015355;28;20026;-67
2021/09/10 00:55:58;;;;;;;3.92;2.72;;;;;;;;;;5015327;28;20080;-67
2021/09/10 00:58:24;;;;;;;8.98;2.97;;;;;;;;;;5014095;28;20041;-68
2021/09/10 01:00:51;;;;;;;6.00;2.78;;;;;;;;;;5014907;28;20044;-67
2021/09/10 01:03:17;;;;;;;3.08;2.63;;;;;;;;;;5013406;28;20389;-74
2021/09/10 01:05:44;;;;;;;7.28;2.50;;;;;;;;;;5012747;28;20540;-68
2021/09/10 01:08:13;;;;;;;7.07;3.10;;;;;;;;;;5014836;28;20084;-68
2021/09/10 01:10:40;;;;;;;6.00;2.70;;;;;;;;;;5014529;28;20057;-68
2021/09/10 01:13:06;;;;;;;6.68;2.70;;;;;;;;;;5014898;28;20034;-69
2021/09/10 01:15:33;;;;;;;11.77;2.92;;;;;;;;;;5014543;28;20033;-68
2021/09/10 01:17:58;;;;;;;6.53;3.08;;;;;;;;;;5013276;28;20088;-68
2021/09/10 01:20:24;;;;;;;5.28;3.35;;;;;;;;;;5012488;28;20022;-68
2021/09/10 01:22:50;;;;;;;9.60;3.58;;;;;;;;;;5014567;28;20485;-67
2021/09/10 01:25:18;;;;;;;9.35;3.10;;;;;;;;;;5014518;28;20022;-70
2021/09/10 01:27:54;;;;;;;7.13;3.38;;;;;;;;;;5013495;28;20029;-70
2021/09/10 01:30:21;;;;;;;6.60;3.70;;;;;;;;;;5014344;28;20373;-67
2021/09/10 01:32:47;;;;;;;7.50;3.28;;;;;;;;;;5014284;28;20102;-70
2021/09/10 01:35:13;;;;;;;6.15;3.40;;;;;;;;;;5014238;28;20104;-69
2021/09/10 01:37:39;;;;;;;8.85;3.70;;;;;;;;;;5014425;28;20032;-68
2021/09/10 01:40:06;;;;;;;16.83;3.92;;;;;;;;;;5014439;28;20030;-70
2021/09/10 01:42:32;;;;;;;4.75;3.15;;;;;;;;;;5014290;28;20102;-67
2021/09/10 01:44:58;;;;;;;10.68;3.65;;;;;;;;;;5014396;28;20030;-68
2021/09/10 01:47:24;;;;;;;8.98;3.03;;;;;;;;;;5014643;28;20030;-69
2021/09/10 01:49:50;;;;;;;15.25;3.17;;;;;;;;;;5014033;28;20026;-68
2021/09/10 01:52:16;;;;;;;8.05;3.75;;;;;;;;;;5013697;28;20026;-70
2021/09/10 01:54:42;;;;;;;9.65;3.75;;;;;;;;;;5013016;28;20107;-70
2021/09/10 01:57:08;;;;;;;12.00;3.17;;;;;;;;;;5013691;28;20026;-68
2021/09/10 01:59:34;;;;;;;12.77;3.40;;;;;;;;;;5013596;28;20084;-68
2021/09/10 02:02:00;;;;;;;7.90;4.22;;;;;;;;;;5013878;28;20125;-68
2021/09/10 02:04:26;;;;;;;6.68;3.63;;;;;;;;;;5014242;28;20028;-69
2021/09/10 02:06:52;;;;;;;7.65;3.95;;;;;;;;;;5012749;28;20072;-67
2021/09/10 02:09:18;;;;;;;6.45;3.85;;;;;;;;;;5013874;28;20025;-68
2021/09/10 02:11:44;;;;;;;9.55;4.15;;;;;;;;;;5013614;28;20053;-68
2021/09/10 02:14:10;;;;;;;11.02;4.38;;;;;;;;;;5013589;28;20076;-68
2021/09/10 02:16:36;;;;;;;7.35;4.10;;;;;;;;;;5013698;28;20421;-67
2021/09/10 02:19:02;;;;;;;14.35;4.65;;;;;;;;;;5013936;28;20045;-67
2021/09/10 02:21:28;;;;;;;9.05;4.70;;;;;;;;;;5013557;28;20026;-68
2021/09/10 02:23:54;;;;;;;18.05;4.70;;;;;;;;;;5012914;28;20042;-68
2021/09/10 02:26:20;;;;;;;12.10;5.45;;;;;;;;;;5013402;28;20018;-68
2021/09/10 02:28:46;;;;;;;9.10;5.70;;;;;;;;;;5013759;28;20064;-68
2021/09/10 02:31:12;;;;;;;6.18;5.13;;;;;;;;;;5013762;28;20101;-68
2021/09/10 02:33:38;;;;;;;11.45;5.82;;;;;;;;;;5013753;28;20102;-67
2021/09/10 02:36:04;;;;;;;9.70;4.93;;;;;;;;;;5012434;28;20160;-68
2021/09/10 02:38:30;;;;;;;7.38;5.20;;;;;;;;;;5013569;28;20128;-69
2021/09/10 02:40:56;;;;;;;9.88;6.07;;;;;;;;;;5016472;28;20057;-71
2021/09/10 02:43:22;;;;;;;9.40;5.47;;;;;;;;;;5018054;28;20342;-72
2021/09/10 02:45:48;;;;;;;6.93;5.47;;;;;;;;;;5017659;28;20026;-69
2021/09/10 02:48:14;;;;;;;8.07;4.78;;;;;;;;;;5016091;28;20033;-69
2021/09/10 02:50:40;;;;;;;11.35;6.90;;;;;;;;;;5017706;28;20109;-69
2021/09/10 02:53:06;;;;;;;11.00;6.93;;;;;;;;;;5017534;28;20056;-68
2021/09/10 02:55:32;;;;;;;9.63;6.18;;;;;;;;;;5016124;28;20069;-68
2021/09/10 02:57:58;;;;;;;12.32;6.32;;;;;;;;;;5017121;28;20049;-69
2021/09/10 03:00:24;;;;;;;19.10;7.68;;;;;;;;;;5017348;28;20022;-71
2021/09/10 03:02:50;;;;;;;14.73;6.60;;;;;;;;;;5017062;28;20469;-69
2021/09/10 03:05:16;;;;;;;11.32;5.95;;;;;;;;;;5017197;28;20018;-68
2021/09/10 03:07:42;;;;;;;16.00;4.75;;;;;;;;;;5017134;28;20037;-68
2021/09/10 03:10:09;;;;;;;9.10;5.60;;;;;;;;;;5017225;28;20038;-68
2021/09/10 03:12:36;;;;;;;15.20;5.43;;;;;;;;;;5015853;28;20040;-67
2021/09/10 03:15:03;;;;;;;9.40;5.93;;;;;;;;;;5016675;28;20033;-68
2021/09/10 03:17:29;;;;;;;9.57;5.53;;;;;;;;;;5016493;28;20026;-68
2021/09/10 03:19:55;;;;;;;13.07;7.93;;;;;;;;;;5015505;28;20088;-67
2021/09/10 03:22:21;;;;;;;14.05;7.70;;;;;;;;;;5016591;28;20110;-70
2021/09/10 03:24:47;;;;;;;8.57;6.28;;;;;;;;;;5011956;28;20045;-68
2021/09/10 03:27:13;;;;;;;14.55;8.88;;;;;;;;;;4996813;28;20026;-69
2021/09/10 03:29:39;;;;;;;11.20;7.90;;;;;;;;;;5016398;28;20049;-69
2021/09/10 03:32:06;;;;;;;13.77;8.90;;;;;;;;;;5016775;28;20018;-68
2021/09/10 03:34:32;;;;;;;13.25;8.27;;;;;;;;;;5016499;28;20021;-68
2021/09/10 03:36:58;;;;;;;13.93;7.93;;;;;;;;;;5016689;28;20524;-68
2021/09/10 03:39:24;;;;;;;11.15;5.57;;;;;;;;;;5014972;28;20042;-68
2021/09/10 03:41:50;;;;;;;13.18;6.65;;;;;;;;;;5016380;28;20113;-69
2021/09/10 03:44:20;;;;;;;18.40;6.43;;;;;;;;;;5016794;28;20025;-74
2021/09/10 03:46:46;;;;;;;12.02;8.00;;;;;;;;;;5017394;28;20484;-68
2021/09/10 03:49:12;;;;;;;21.50;6.20;;;;;;;;;;5016399;28;20477;-68
2021/09/10 03:51:38;;;;;;;13.30;6.15;;;;;;;;;;5014089;28;20105;-69
2021/09/10 03:54:04;;;;;;;17.50;6.88;;;;;;;;;;5016156;28;20026;-69
2021/09/10 03:56:30;;;;;;;11.05;8.00;;;;;;;;;;5015944;28;20437;-68
2021/09/10 03:58:56;;;;;;;15.48;9.10;;;;;;;;;;5016141;28;20034;-68
2021/09/10 04:01:22;;;;;;;17.42;7.00;;;;;;;;;;5015008;28;20032;-68
2021/09/10 04:03:48;;;;;;;14.20;8.38;;;;;;;;;;5015937;28;20361;-68
2021/09/10 04:06:14;;;;;;;16.73;8.55;;;;;;;;;;5016026;28;20022;-68
2021/09/10 04:08:43;;;;;;;14.70;7.78;;;;;;;;;;5014573;28;20033;-75
2021/09/10 04:11:09;;;;;;;15.90;8.35;;;;;;;;;;5015754;28;20046;-68
2021/09/10 04:13:35;;;;;;;11.43;6.88;;;;;;;;;;5015720;28;20029;-68
2021/09/10 04:16:01;;;;;;;12.50;8.95;;;;;;;;;;5015672;28;20025;-68
2021/09/10 04:18:27;;;;;;;12.18;8.48;;;;;;;;;;5015434;28;20044;-67
2021/09/10 04:20:53;;;;;;;14.77;8.32;;;;;;;;;;5015889;28;20022;-68
2021/09/10 04:23:19;;;;;;;12.32;8.02;;;;;;;;;;5015774;28;20026;-68
2021/09/10 04:25:45;;;;;;;13.00;7.85;;;;;;;;;;5015657;28;20084;-68
2021/09/10 04:28:12;;;;;;;12.38;9.00;;;;;;;;;;5015304;28;20026;-68
2021/09/10 04:30:38;;;;;;;15.55;8.93;;;;;;;;;;5014739;28;20030;-67
2021/09/10 04:33:04;;;;;;;11.43;8.88;;;;;;;;;;5015539;28;20050;-68
2021/09/10 04:35:30;;;;;;;14.48;8.45;;;;;;;;;;5015187;28;20064;-68
2021/09/10 04:37:56;;;;;;;13.70;8.77;;;;;;;;;;5015330;28;20040;-68
2021/09/10 04:40:22;;;;;;;10.82;8.38;;;;;;;;;;5015101;28;20030;-67
2021/09/10 04:42:48;;;;;;;14.77;9.32;;;;;;;;;;5015167;28;20018;-70
2021/09/10 04:45:14;;;;;;;11.07;8.15;;;;;;;;;;5015048;28;20034;-68
2021/09/10 04:47:40;;;;;;;11.60;8.15;;;;;;;;;;5014365;28;20096;-68
2021/09/10 04:50:06;;;;;;;15.10;8.32;;;;;;;;;;5015356;28;20022;-69
2021/09/10 04:52:33;;;;;;;15.73;8.52;;;;;;;;;;5014992;28;20478;-67
2021/09/10 04:54:59;;;;;;;13.05;9.43;;;;;;;;;;5014830;28;20478;-67
2021/09/10 04:57:25;;;;;;;20.98;6.60;;;;;;;;;;5014848;28;20030;-67
2021/09/10 04:59:53;;;;;;;12.55;9.25;;;;;;;;;;5014841;28;20037;-68
2021/09/10 05:02:19;;;;;;;13.13;8.95;;;;;;;;;;5014652;28;20093;-68
2021/09/10 05:04:45;;;;;;;26.33;9.63;;;;;;;;;;5013545;28;20033;-69
2021/09/10 05:07:11;;;;;;;21.30;7.03;;;;;;;;;;5014838;28;20014;-74
2021/09/10 05:09:37;;;;;;;12.57;7.60;;;;;;;;;;5014862;28;20080;-67
2021/09/10 05:12:04;;;;;;;15.57;9.40;;;;;;;;;;5014633;28;20058;-68
2021/09/10 05:14:30;;;;;;;16.02;8.88;;;;;;;;;;5014746;28;20456;-68
2021/09/10 05:16:56;;;;;;;11.75;6.68;;;;;;;;;;5014698;28;20092;-68
2021/09/10 05:19:22;;;;;;;22.42;7.07;;;;;;;;;;5013390;28;20063;-67
2021/09/10 05:21:48;;;;;;;17.15;8.45;;;;;;;;;;5005475;28;20022;-72
2021/09/10 05:24:14;;;;;;;17.42;8.35;;;;;;;;;;5013232;28;20511;-71
2021/09/10 05:26:40;;;;;;;12.65;9.23;;;;;;;;;;5014541;28;20026;-71
2021/09/10 05:29:06;;;;;;;11.15;8.88;;;;;;;;;;4999240;28;20025;-70
2021/09/10 05:31:32;;;;;;;20.67;9.68;;;;;;;;;;5006700;28;20137;-70
2021/09/10 05:33:58;;;;;;;16.02;8.95;;;;;;;;;;4993392;28;20182;-71
2021/09/10 05:36:24;;;;;;;17.40;8.35;;;;;;;;;;4994686;28;20034;-71
2021/09/10 05:38:50;;;;;;;13.77;9.32;;;;;;;;;;5009740;28;20042;-71
2021/09/10 05:41:16;;;;;;;17.23;7.70;;;;;;;;;;5014216;28;20073;-71
2021/09/10 05:43:42;;;;;;;21.58;8.45;;;;;;;;;;5013178;28;20034;-71
2021/09/10 05:46:08;;;;;;;15.52;8.98;;;;;;;;;;5014048;28;20029;-71
2021/09/10 05:48:35;;;;;;;15.65;8.93;;;;;;;;;;5014202;28;20123;-72
2021/09/10 05:51:01;;;;;;;63.60;7.75;;;;;;;;;;5012851;28;20056;-74
2021/09/10 05:53:28;;;;;;;22.15;9.65;;;;;;;;;;5013993;28;20026;-63
2021/09/10 05:55:54;;;;;;;31.40;7.93;;;;;;;;;;5014017;28;20037;-71
2021/09/10 05:58:20;;;;;;;24.30;8.90;;;;;;;;;;5014276;28;20030;-69
2021/09/10 06:00:46;;;;;;;18.88;9.25;;;;;;;;;;5012899;28;20542;-70
2021/09/10 06:03:12;;;;;;;16.75;8.32;;;;;;;;;;5013497;28;20044;-69
2021/09/10 06:05:38;;;;;;;17.05;9.75;;;;;;;;;;5013853;28;20076;-69
2021/09/10 06:08:04;;;;;;;23.25;9.27;;;;;;;;;;5013434;28;20034;-69
2021/09/10 06:10:30;;;;;;;26.73;10.32;;;;;;;;;;5004090;28;20034;-69
2021/09/10 06:12:56;;;;;;;23.55;9.85;;;;;;;;;;4993744;28;20033;-68
2021/09/10 06:15:22;;;;;;;16.55;9.93;;;;;;;;;;4993830;28;20052;-69
2021/09/10 06:17:48;;;;;;;24.88;8.80;;;;;;;;;;5006793;28;20040;-69
2021/09/10 06:20:14;;;;;;;13.88;9.63;;;;;;;;;;5004850;28;20021;-63
2021/09/10 06:22:40;;;;;;;24.40;8.85;;;;;;;;;;5004704;28;20429;-67
2021/09/10 06:25:09;;;;;;;19.05;7.47;;;;;;;;;;5010158;28;20053;-64
2021/09/10 06:27:36;;;;;;;17.33;8.48;;;;;;;;;;5003513;28;20054;-64
2021/09/10 06:30:02;;;;;;;25.02;7.78;;;;;;;;;;4994435;28;20470;-71
2021/09/10 06:32:28;;;;;;;21.30;7.40;;;;;;;;;;4993954;28;20027;-68
2021/09/10 06:34:54;;;;;;;20.42;6.68;;;;;;;;;;4994560;28;20023;-76
2021/09/10 06:37:20;;;;;;;17.10;7.18;;;;;;;;;;4994161;28;20652;-75
2021/09/10 06:39:47;;;;;;;26.77;9.15;;;;;;;;;;5001193;28;20026;-77
2021/09/10 06:42:13;;;;;;;23.60;8.02;;;;;;;;;;5013965;28;20033;-76
2021/09/10 06:44:39;;;;;;;28.30;7.80;;;;;;;;;;5014062;28;20026;-76
2021/09/10 06:47:05;;;;;;;14.23;9.23;;;;;;;;;;5014240;28;20385;-76
2021/09/10 06:49:31;;;;;;;21.58;7.78;;;;;;;;;;5014133;28;20022;-74
2021/09/10 06:51:57;;;;;;;31.08;8.20;;;;;;;;;;5014139;28;20434;-77
2021/09/10 06:54:23;;;;;;;17.40;7.78;;;;;;;;;;5012916;28;20377;-76
2021/09/10 06:56:49;;;;;;;14.02;9.20;;;;;;;;;;5012736;28;20478;-77
2021/09/10 06:59:19;;;;;;;15.95;7.82;;;;;;;;;;5013831;28;20045;-73
2021/09/10 07:01:45;;;;;;;18.25;7.28;;;;;;;;;;5013605;28;20018;-77
2021/09/10 07:04:11;;;;;;;15.15;7.57;;;;;;;;;;5013518;28;20034;-74
2021/09/10 07:06:36;;;;;;;17.42;8.25;;;;;;;;;;5013630;28;20037;-76
2021/09/10 07:09:03;;;;;;;18.73;8.75;;;;;;;;;;5013622;28;20407;-76
2021/09/10 07:11:30;;;;;;;13.75;8.13;;;;;;;;;;5013370;28;20129;-76
2021/09/10 07:13:56;;;;;;;12.75;8.02;;;;;;;;;;5013761;28;20022;-77
2021/09/10 07:16:22;;;;;;;15.07;8.48;;;;;;;;;;5013226;28;20130;-77
2021/09/10 07:18:48;;;;;;;19.58;8.48;;;;;;;;;;5013243;28;20081;-77
2021/09/10 07:21:14;;;;;;;16.30;8.98;;;;;;;;;;5013736;28;20469;-75
2021/09/10 07:23:40;;;;;;;15.65;9.90;;;;;;;;;;5012093;28;20117;-76
2021/09/10 07:26:06;;;;;;;17.70;8.95;;;;;;;;;;5013739;28;20026;-76
2021/09/10 07:28:35;;;;;;;16.63;9.65;;;;;;;;;;5008009;28;20022;-75
2021/09/10 07:31:02;;;;;;;17.27;10.20;;;;;;;;;;4997200;28;20101;-76
2021/09/10 07:33:28;;;;;;;16.35;9.25;;;;;;;;;;4996226;28;20374;-76
2021/09/10 07:35:54;;;;;;;16.60;9.88;;;;;;;;;;4997383;28;20465;-75
2021/09/10 07:38:20;;;;;;;17.25;10.07;;;;;;;;;;4995723;28;20038;-76
2021/09/10 07:40:47;;;;;;;14.68;9.75;;;;;;;;;;4995855;28;20022;-76
2021/09/10 07:43:13;;;;;;;15.95;9.13;;;;;;;;;;4995816;28;20029;-76
2021/09/10 07:45:39;;;;;;;16.55;9.63;;;;;;;;;;4995543;28;20022;-77
2021/09/10 07:48:05;;;;;;;15.73;8.95;;;;;;;;;;4995829;28;20027;-76
2021/09/10 07:50:31;;;;;;;12.95;8.20;;;;;;;;;;5000176;28;20121;-74
2021/09/10 07:52:57;;;;;;;17.98;8.43;;;;;;;;;;5013657;28;20069;-76
2021/09/10 07:55:23;;;;;;;14.27;8.30;;;;;;;;;;5015606;28;20026;-76
2021/09/10 07:57:50;;;;;;;24.63;7.55;;;;;;;;;;5016681;28;20026;-77
2021/09/10 08:00:20;;;;;;;23.02;7.95;;;;;;;;;;5016596;28;20029;-78
2021/09/10 08:02:46;;;;;;;13.70;7.32;;;;;;;;;;5015173;28;20108;-78
2021/09/10 08:05:14;;;;;;;13.35;7.15;;;;;;;;;;5016247;28;20025;-77
2021/09/10 08:07:40;;;;;;;13.35;7.25;;;;;;;;;;5016324;28;20076;-78
2021/09/10 08:10:06;;;;;;;12.57;7.25;;;;;;;;;;5015787;28;20469;-77
2021/09/10 08:12:32;;;;;;;41.55;7.80;;;;;;;;;;5016394;28;20473;-76
2021/09/10 08:14:59;;;;;;;28.50;7.05;;;;;;;;;;5014186;28;20022;-78
2021/09/10 08:17:25;;;;;;;19.73;6.07;;;;;;;;;;5005510;28;20026;-77
2021/09/10 08:19:51;;;;;;;16.02;6.50;;;;;;;;;;5015577;28;20358;-79
2021/09/10 08:22:17;;;;;;;13.65;6.50;;;;;;;;;;5016133;28;20018;-78
2021/09/10 08:24:47;;;;;;;15.85;6.60;;;;;;;;;;5015721;28;20120;-78
2021/09/10 08:27:13;;;;;;;9.00;6.78;;;;;;;;;;5014468;28;20080;-78
2021/09/10 08:29:39;;;;;;;12.43;6.60;;;;;;;;;;5015715;28;20029;-78
2021/09/10 08:32:05;;;;;;;12.55;7.07;;;;;;;;;;5015485;28;20038;-78
2021/09/10 08:34:31;;;;;;;14.10;6.47;;;;;;;;;;5015529;28;20546;-77
2021/09/10 08:36:57;;;;;;;8.55;6.50;;;;;;;;;;5015125;28;20478;-79
2021/09/10 08:39:23;;;;;;;10.52;5.57;;;;;;;;;;5004401;28;20043;-78
2021/09/10 08:41:49;;;;;;;8.38;6.20;;;;;;;;;;5006786;28;20025;-77
2021/09/10 08:44:16;;;;;;;10.48;6.13;;;;;;;;;;5007051;28;20034;-79
2021/09/10 08:46:44;;;;;;;9.90;6.38;;;;;;;;;;5015697;28;20485;-78
2021/09/10 08:49:11;;;;;;;14.90;6.32;;;;;;;;;;5015263;28;20121;-75
2021/09/10 08:51:38;;;;;;;9.60;6.20;;;;;;;;;;5015311;28;20060;-77
2021/09/10 08:54:04;;;;;;;12.43;6.20;;;;;;;;;;5014156;28;20034;-74
2021/09/10 08:56:30;;;;;;;12.55;5.97;;;;;;;;;;5014320;28;20017;-73
2021/09/10 08:59:16;;;;;;;11.57;6.03;;;;;;;;;;5014740;28;20037;-73
2021/09/10 09:01:49;;;;;;;10.73;5.90;;;;;;;;;;4995495;28;20041;-77
2021/09/10 09:04:16;;;;;;;14.80;6.32;;;;;;;;;;5011947;28;20116;-78
2021/09/10 09:06:42;;;;;;;9.00;6.20;;;;;;;;;;5014944;28;20390;-78
2021/09/10 09:09:08;;;;;;;20.63;6.28;;;;;;;;;;5015168;28;20030;-78
2021/09/10 09:11:34;;;;;;;18.20;5.63;;;;;;;;;;5015268;28;20038;-78
2021/09/10 09:14:03;;;;;;;17.73;5.65;;;;;;;;;;5013676;28;20037;-77
2021/09/10 09:16:31;;;;;;;26.40;5.60;;;;;;;;;;5014824;28;20040;-71
2021/09/10 09:18:58;;;;;;;21.58;5.10;;;;;;;;;;5014816;28;20038;-77
2021/09/10 09:21:42;;;;;;;27.27;6.00;;;;;;;;;;5014200;28;20026;-76
2021/09/10 09:24:14;;;;;;;40.50;6.07;;;;;;;;;;4995183;28;20030;-76
2021/09/10 09:26:41;;;;;;;68.63;6.50;;;;;;;;;;4993754;28;20371;-78
2021/09/10 09:29:08;;;;;;;27.55;5.38;;;;;;;;;;4994344;28;20027;-78
2021/09/10 09:31:35;;;;;;;10.88;5.93;;;;;;;;;;4995383;28;20034;-78
2021/09/10 09:34:01;;;;;;;34.38;7.07;;;;;;;;;;5003951;28;20030;-74
2021/09/10 09:36:27;;;;;;;28.42;6.40;;;;;;;;;;5014677;28;20053;-77
2021/09/10 09:38:55;;;;;;;10.38;6.10;;;;;;;;;;4998120;28;20044;-78
2021/09/10 09:41:22;;;;;;;10.68;6.60;;;;;;;;;;4994707;28;20097;-78
2021/09/10 09:43:50;;;;;;;9.23;6.13;;;;;;;;;;4994722;28;20027;-78
2021/09/10 09:46:17;;;;;;;10.02;6.70;;;;;;;;;;4994704;28;20351;-78
2021/09/10 09:48:44;;;;;;;12.40;7.25;;;;;;;;;;5005149;28;20022;-78
2021/09/10 09:51:15;;;;;;;17.55;6.50;;;;;;;;;;5010572;28;20428;-77
2021/09/10 09:53:41;;;;;;;12.68;8.48;;;;;;;;;;5013137;28;20026;-69
2021/09/10 09:56:10;;;;;;;15.48;10.10;;;;;;;;;;5012468;28;20116;-72
2021/09/10 09:58:37;;;;;;;18.05;9.52;;;;;;;;;;5010318;28;20038;-71
2021/09/10 10:01:03;;;;;;;11.75;10.55;;;;;;;;;;5013436;28;20160;-70
2021/09/10 10:03:29;;;;;;;12.40;10.10;;;;;;;;;;4994558;28;20023;-70
2021/09/10 10:06:01;;;;;;;13.40;10.32;;;;;;;;;;4993268;28;20408;-70
2021/09/10 10:08:46;;;;;;;16.77;11.02;;;;;;;;;;4994807;28;20081;-70
2021/09/10 10:11:14;;;;;;;17.38;12.35;;;;;;;;;;5004628;28;20057;-70
2021/09/10 10:13:41;;;;;;;17.73;12.00;;;;;;;;;;4994164;28;20027;-70
2021/09/10 10:16:07;;;;;;;22.30;13.40;;;;;;;;;;4999211;28;20033;-70
2021/09/10 10:18:44;;;;;;;15.82;13.20;;;;;;;;;;5013701;28;20018;-71
2021/09/10 10:21:11;;;;;;;26.33;13.93;;;;;;;;;;5013050;28;20041;-70
2021/09/10 10:23:43;;;;;;;17.70;13.13;;;;;;;;;;5013632;28;20065;-69
2021/09/10 10:26:09;;;;;;;19.90;13.95;;;;;;;;;;4993949;28;20031;-69
2021/09/10 10:28:45;;;;;;;20.23;13.38;;;;;;;;;;4994433;28;20078;-70
2021/09/10 10:31:12;;;;;;;17.48;13.10;;;;;;;;;;4993887;28;20485;-70
2021/09/10 10:34:03;;;;;;;16.20;12.48;;;;;;;;;;4992555;28;20497;-69
2021/09/10 10:36:29;;;;;;;15.88;13.10;;;;;;;;;;4992704;28;20113;-73
2021/09/10 10:39:12;;;;;;;16.40;12.25;;;;;;;;;;4993150;28;20038;-72
2021/09/10 10:41:49;;;;;;;16.73;12.25;;;;;;;;;;5005243;28;20110;-70
2021/09/10 10:44:33;;;;;;;17.08;12.15;;;;;;;;;;5002653;28;20030;-74
2021/09/10 10:47:10;;;;;;;15.85;12.38;;;;;;;;;;5011488;28;20026;-77
2021/09/10 10:49:37;;;;;;;17.10;13.40;;;;;;;;;;4995107;28;20038;-76
2021/09/10 10:52:23;;;;;;;16.38;12.27;;;;;;;;;;5012258;28;20042;-77
2021/09/10 10:55:08;;;;;;;19.85;14.48;;;;;;;;;;4994684;28;20030;-77
2021/09/10 10:57:35;;;;;;;23.48;15.48;;;;;;;;;;5004617;28;20026;-77
2021/09/10 11:00:01;;;;;;;23.77;17.08;;;;;;;;;;4998849;28;20026;-77
2021/09/10 11:02:45;;;;;;;24.52;17.65;;;;;;;;;;5013019;28;20022;-77
2021/09/10 11:05:24;;;;;;;21.45;16.20;;;;;;;;;;5017297;28;20034;-77
2021/09/10 11:07:50;;;;;;;21.40;14.93;;;;;;;;;;5004983;28;20023;-77
2021/09/10 11:10:20;;;;;;;21.73;17.65;;;;;;;;;;5008380;28;20064;-76
2021/09/10 11:12:53;;;;;;;21.00;16.00;;;;;;;;;;4997226;28;20092;-77
2021/09/10 11:15:20;;;;;;;22.33;15.82;;;;;;;;;;5001025;28;20113;-76
2021/09/10 11:17:54;;;;;;;18.40;14.90;;;;;;;;;;5001063;28;20058;-77
2021/09/10 11:20:42;;;;;;;15.73;14.05;;;;;;;;;;5007747;28;20058;-74
2021/09/10 11:23:10;;;;;;;17.13;12.88;;;;;;;;;;5002200;28;20022;-76
2021/09/10 11:25:46;;;;;;;16.23;12.00;;;;;;;;;;5003184;28;20030;-76
2021/09/10 11:28:12;;;;;;;15.65;12.13;;;;;;;;;;5011598;28;20026;-76
2021/09/10 11:30:38;;;;;;;14.82;11.82;;;;;;;;;;5000139;28;20481;-76
2021/09/10 11:33:04;;;;;;;17.63;10.23;;;;;;;;;;4998472;28;20113;-76
2021/09/10 11:35:31;;;;;;;15.63;10.02;;;;;;;;;;5002859;28;20034;-76
2021/09/10 11:37:57;;;;;;;13.02;8.80;;;;;;;;;;4998144;28;20034;-76
2021/09/10 11:40:31;;;;;;;13.73;8.93;;;;;;;;;;5012885;28;20037;-76
2021/09/10 11:43:01;;;;;;;16.77;8.60;;;;;;;;;;4997418;28;20026;-75
2021/09/10 11:45:30;;;;;;;16.17;8.63;;;;;;;;;;4998056;28;20058;-76
2021/09/10 11:47:56;;;;;;;10.88;8.10;;;;;;;;;;5008101;28;20456;-76
2021/09/10 11:50:22;;;;;;;10.10;7.57;;;;;;;;;;5005330;28;20026;-74
2021/09/10 11:52:48;;;;;;;14.18;8.25;;;;;;;;;;5006711;28;20041;-74
2021/09/10 11:55:15;;;;;;;12.38;7.93;;;;;;;;;;5008727;28;20112;-75
2021/09/10 11:57:42;;;;;;;11.00;7.63;;;;;;;;;;5003962;28;20053;-75
2021/09/10 12:00:29;;;;;;;13.23;7.63;;;;;;;;;;5007442;28;20034;-75
2021/09/10 12:02:55;;;;;;;13.63;7.25;;;;;;;;;;5003800;28;20037;-76
2021/09/10 12:05:21;;;;;;;16.38;8.27;;;;;;;;;;5004004;28;20026;-76
2021/09/10 12:07:50;;;;;;;8.88;6.72;;;;;;;;;;4999971;28;20140;-77
2021/09/10 12:10:35;;;;;;;8.63;6.03;;;;;;;;;;5006560;28;20022;-76
2021/09/10 12:13:11;;;;;;;11.48;5.55;;;;;;;;;;5009753;28;20140;-75
2021/09/10 12:15:37;;;;;;;7.45;5.78;;;;;;;;;;5006301;28;20489;-70
2021/09/10 12:18:07;;;;;;;11.23;6.40;;;;;;;;;;5003144;28;20035;-64
2021/09/10 12:20:33;;;;;;;12.93;6.80;;;;;;;;;;5004137;28;20507;-64
2021/09/10 12:23:00;;;;;;;9.85;6.78;;;;;;;;;;5014525;28;20028;-71
2021/09/10 12:25:26;;;;;;;12.10;7.10;;;;;;;;;;5015315;28;20022;-72
2021/09/10 12:27:54;;;;;;;13.20;7.35;;;;;;;;;;5015154;28;20503;-71
2021/09/10 12:30:21;;;;;;;9.90;6.65;;;;;;;;;;5014086;28;20385;-70
2021/09/10 12:32:47;;;;;;;12.13;7.03;;;;;;;;;;5015632;28;20026;-71
2021/09/10 12:35:13;;;;;;;14.13;7.40;;;;;;;;;;5015716;28;20476;-70
2021/09/10 12:37:40;;;;;;;10.80;7.25;;;;;;;;;;5013986;28;20030;-69
2021/09/10 12:40:06;;;;;;;12.63;6.53;;;;;;;;;;5005600;28;20033;-69
2021/09/10 12:42:32;;;;;;;16.10;7.03;;;;;;;;;;4995925;28;20038;-69
2021/09/10 12:44:58;;;;;;;19.40;7.65;;;;;;;;;;4996120;28;20030;-70
2021/09/10 12:47:24;;;;;;;11.55;7.78;;;;;;;;;;4995643;28;20022;-70
2021/09/10 12:49:53;;;;;;;10.35;8.13;;;;;;;;;;4996689;28;20113;-69
2021/09/10 12:52:19;;;;;;;11.98;7.93;;;;;;;;;;5015008;28;20034;-69
2021/09/10 12:54:45;;;;;;;12.65;7.38;;;;;;;;;;5015643;28;20473;-70
2021/09/10 12:57:11;;;;;;;9.98;6.32;;;;;;;;;;5013973;28;20057;-68
2021/09/10 12:59:37;;;;;;;15.60;5.90;;;;;;;;;;5015499;28;20033;-68
2021/09/10 13:02:06;;;;;;;11.20;5.13;;;;;;;;;;5014920;28;20386;-69
2021/09/10 13:04:32;;;;;;;10.68;4.30;;;;;;;;;;5015362;28;20037;-69
2021/09/10 13:06:58;;;;;;;8.45;4.20;;;;;;;;;;5012623;28;20053;-69
2021/09/10 13:09:28;;;;;;;14.35;4.45;;;;;;;;;;5014751;28;20124;-69
2021/09/10 13:11:54;;;;;;;9.70;4.32;;;;;;;;;;5014703;28;20136;-69
2021/09/10 13:14:20;;;;;;;12.30;3.97;;;;;;;;;;5013711;28;20135;-69
2021/09/10 13:16:46;;;;;;;9.35;4.15;;;;;;;;;;5015367;28;20528;-69
2021/09/10 13:19:12;;;;;;;13.25;4.03;;;;;;;;;;5014534;28;20041;-69
2021/09/10 13:21:38;;;;;;;8.90;4.40;;;;;;;;;;5014604;28;20027;-69
2021/09/10 13:24:04;;;;;;;12.32;4.65;;;;;;;;;;5013910;28;20030;-68
2021/09/10 13:26:30;;;;;;;6.15;4.20;;;;;;;;;;5014467;28;20393;-68
2021/09/10 13:28:56;;;;;;;7.38;4.20;;;;;;;;;;5014923;28;20105;-68
2021/09/10 13:31:22;;;;;;;8.63;4.70;;;;;;;;;;5014614;28;20026;-68
2021/09/10 13:33:48;;;;;;;12.10;5.40;;;;;;;;;;5014739;28;20110;-69
2021/09/10 13:36:14;;;;;;;15.63;5.60;;;;;;;;;;5014311;28;20022;-69
2021/09/10 13:38:40;;;;;;;15.23;5.43;;;;;;;;;;5014346;28;20363;-68
2021/09/10 13:41:06;;;;;;;10.90;5.53;;;;;;;;;;5013511;28;20021;-68
2021/09/10 13:43:32;;;;;;;13.23;5.43;;;;;;;;;;5014276;28;20114;-68
2021/09/10 13:45:58;;;;;;;10.52;5.72;;;;;;;;;;5014402;28;20457;-68
2021/09/10 13:48:24;;;;;;;10.00;5.60;;;;;;;;;;5014703;28;20061;-69
2021/09/10 13:50:50;;;;;;;14.05;6.50;;;;;;;;;;5014272;28;20049;-68
2021/09/10 13:53:16;;;;;;;18.38;6.55;;;;;;;;;;5014246;28;20025;-67
2021/09/10 13:55:42;;;;;;;10.18;6.13;;;;;;;;;;5014057;28;20469;-68
2021/09/10 13:58:08;;;;;;;11.43;6.55;;;;;;;;;;5014077;28;20049;-68
2021/09/10 14:00:34;;;;;;;23.42;7.25;;;;;;;;;;5014308;28;20362;-67
2021/09/10 14:03:00;;;;;;;14.55;7.00;;;;;;;;;;5014080;28;20107;-67
2021/09/10 14:05:26;;;;;;;10.48;6.45;;;;;;;;;;5013855;28;20022;-68
2021/09/10 14:07:52;;;;;;;15.77;6.30;;;;;;;;;;5013158;28;20030;-67
2021/09/10 14:10:18;;;;;;;14.73;8.18;;;;;;;;;;5014676;28;20026;-67
2021/09/10 14:12:44;;;;;;;13.27;7.63;;;;;;;;;;5014045;28;20104;-67
2021/09/10 14:15:10;;;;;;;16.17;7.82;;;;;;;;;;5014107;28;20030;-67
2021/09/10 14:17:36;;;;;;;16.48;7.70;;;;;;;;;;5013634;28;20022;-67
2021/09/10 14:20:03;;;;;;;15.10;7.63;;;;;;;;;;5013727;28;20040;-68
2021/09/10 14:22:29;;;;;;;13.88;7.10;;;;;;;;;;5013760;28;20432;-68
2021/09/10 14:24:55;;;;;;;16.75;9.48;;;;;;;;;;5013082;28;20471;-67
2021/09/10 14:27:22;;;;;;;17.75;8.77;;;;;;;;;;5013675;28;20026;-67
2021/09/10 14:29:48;;;;;;;12.18;8.25;;;;;;;;;;5014513;28;20029;-67
2021/09/10 14:32:14;;;;;;;16.02;7.47;;;;;;;;;;5013787;28;20117;-68